createdAt,value
2023-01-15T00:02:18.035Z,99426.56
2023-01-15T00:04:45.530Z,99428.53
2023-01-15T00:07:12.682Z,99418.16
2023-01-15T00:09:39.862Z,99423.94
2023-01-15T00:12:07.485Z,99417.34
2023-01-15T00:14:36.121Z,99412.16
2023-01-15T00:17:03.277Z,99414.03
2023-01-15T00:19:30.719Z,99419.47
2023-01-15T00:21:58.329Z,99413.78
2023-01-15T00:24:44.122Z,99418.56
2023-01-15T00:27:31.240Z,99417.53
2023-01-15T00:30:01.889Z,99415.22
2023-01-15T00:32:30.595Z,99406.13
2023-01-15T00:35:00.541Z,99416.56
2023-01-15T00:37:28.151Z,99400.63
2023-01-15T00:39:55.660Z,99400.47
2023-01-15T00:42:22.818Z,99395.66
2023-01-15T00:44:50.029Z,99389.56
2023-01-15T00:47:17.487Z,99397.56
2023-01-15T00:49:44.887Z,99389.09
2023-01-15T00:52:12.083Z,99395.59
2023-01-15T00:54:40.786Z,99396.44
2023-01-15T00:57:08.959Z,99400.13
2023-01-15T00:59:36.388Z,99397.38
2023-01-15T01:02:04.306Z,99398.94
2023-01-15T01:04:31.533Z,99397.66
2023-01-15T01:06:58.699Z,99396.53
2023-01-15T01:09:26.155Z,99391.47
2023-01-15T01:11:53.347Z,99387.09
2023-01-15T01:14:20.504Z,99386.25
2023-01-15T01:16:47.991Z,99388.84
2023-01-15T01:19:19.225Z,99393.41
2023-01-15T01:21:46.715Z,99383.66
2023-01-15T01:24:19.186Z,99390.87
2023-01-15T01:26:46.849Z,99375.25
2023-01-15T01:29:15.071Z,99390.69
2023-01-15T01:31:42.801Z,99401.63
2023-01-15T01:34:10.297Z,99384.19
2023-01-15T01:36:38.360Z,99373.75
2023-01-15T01:39:05.923Z,99365.28
2023-01-15T01:41:33.296Z,99375.81
2023-01-15T01:44:05.037Z,99371.31
2023-01-15T01:46:35.974Z,99370.69
2023-01-15T01:49:13.438Z,99368.34
2023-01-15T01:51:41.569Z,99356.84
2023-01-15T01:54:09.309Z,99353.69
2023-01-15T01:56:37.436Z,99345.41
2023-01-15T01:59:05.748Z,99342.75
2023-01-15T02:01:33.401Z,99336.03
2023-01-15T02:04:00.913Z,99320.63
2023-01-15T02:06:28.355Z,99315.87
2023-01-15T02:08:55.510Z,99308.72
2023-01-15T02:11:23.648Z,99305.94
2023-01-15T02:13:56.192Z,99304.97
2023-01-15T02:16:32.885Z,99296.38
2023-01-15T02:19:01.671Z,99295.06
2023-01-15T02:21:47.207Z,99294.28
2023-01-15T02:24:22.377Z,99298.03
2023-01-15T02:27:16.288Z,99298.09
2023-01-15T02:29:52.233Z,99299.13
2023-01-15T02:32:30.136Z,99293.25
2023-01-15T02:35:00.651Z,99290.19
2023-01-15T02:37:29.404Z,99288.94
2023-01-15T02:39:57.039Z,99287.63
2023-01-15T02:42:24.851Z,99293.78
2023-01-15T02:44:53.332Z,99289.12
2023-01-15T02:47:22.358Z,99281.84
2023-01-15T02:49:49.793Z,99278.13
2023-01-15T02:52:19.449Z,99279.34
2023-01-15T02:54:47.940Z,99271.59
2023-01-15T02:57:15.486Z,99275.13
2023-01-15T02:59:46.805Z,99274.53
2023-01-15T03:02:15.312Z,99280.34
2023-01-15T03:04:54.948Z,99276.06
2023-01-15T03:07:24.309Z,99263.63
2023-01-15T03:09:52.076Z,99265.75
2023-01-15T03:12:24.689Z,99259.88
2023-01-15T03:14:58.997Z,99255.66
2023-01-15T03:17:35.245Z,99257.62
2023-01-15T03:20:05.816Z,99259.91
2023-01-15T03:22:34.959Z,99252.38
2023-01-15T03:25:21.561Z,99249.66
2023-01-15T03:27:49.956Z,99251.63
2023-01-15T03:30:19.301Z,99248.28
2023-01-15T03:32:46.564Z,99244.09
2023-01-15T03:35:32.631Z,99250.28
2023-01-15T03:38:00.163Z,99247.41
2023-01-15T03:40:28.259Z,99240.97
2023-01-15T03:43:17.364Z,99230.19
2023-01-15T03:45:45.189Z,99235.81
2023-01-15T03:48:20.576Z,99235.09
2023-01-15T03:50:48.917Z,99237.66
2023-01-15T03:53:16.235Z,99245.13
2023-01-15T03:55:52.534Z,99245.09
2023-01-15T03:58:22.652Z,99240.34
2023-01-15T04:00:51.051Z,99240.78
2023-01-15T04:03:19.084Z,99227.16
2023-01-15T04:05:47.595Z,99216.94
2023-01-15T04:08:17.021Z,99236.94
2023-01-15T04:10:53.434Z,99230.00
2023-01-15T04:13:20.992Z,99240.84
2023-01-15T04:15:48.676Z,99232.78
2023-01-15T04:18:16.715Z,99231.53
2023-01-15T04:20:44.142Z,99233.75
2023-01-15T04:23:11.996Z,99229.59
2023-01-15T04:25:39.456Z,99220.78
2023-01-15T04:28:06.752Z,99220.50
2023-01-15T04:30:34.600Z,99232.56
2023-01-15T04:33:02.769Z,99219.81
2023-01-15T04:35:30.037Z,99214.81
2023-01-15T04:37:57.935Z,99216.50
2023-01-15T04:40:43.806Z,99221.88
2023-01-15T04:43:31.604Z,99217.72
2023-01-15T04:45:59.088Z,99215.94
2023-01-15T04:48:26.816Z,99216.63
2023-01-15T04:50:54.684Z,99215.00
2023-01-15T04:53:21.903Z,99218.63
2023-01-15T04:55:49.927Z,99207.13
2023-01-15T04:58:17.196Z,99209.75
2023-01-15T05:00:44.417Z,99213.47
2023-01-15T05:03:11.824Z,99197.31
2023-01-15T05:05:38.951Z,99209.50
2023-01-15T05:08:06.077Z,99206.53
2023-01-15T05:10:33.911Z,99199.41
2023-01-15T05:13:01.064Z,99197.38
2023-01-15T05:15:28.229Z,99198.25
2023-01-15T05:17:56.358Z,99198.94
2023-01-15T05:20:23.551Z,99190.63
2023-01-15T05:22:50.675Z,99189.41
2023-01-15T05:25:18.120Z,99191.53
2023-01-15T05:27:45.270Z,99176.66
2023-01-15T05:30:12.579Z,99187.31
2023-01-15T05:32:40.014Z,99166.16
2023-01-15T05:35:07.300Z,99162.69
2023-01-15T05:37:34.559Z,99167.97
2023-01-15T05:40:04.349Z,99174.97
2023-01-15T05:42:31.498Z,99162.75
2023-01-15T05:44:58.661Z,99158.28
2023-01-15T05:47:26.072Z,99151.41
2023-01-15T05:49:53.231Z,99163.47
2023-01-15T05:52:20.380Z,99149.22
2023-01-15T05:54:49.070Z,99147.94
2023-01-15T05:57:16.255Z,99150.44
2023-01-15T05:59:43.488Z,99139.72
2023-01-15T06:02:10.915Z,99156.09
2023-01-15T06:04:38.346Z,99152.91
2023-01-15T06:07:05.506Z,99152.00
2023-01-15T06:09:32.739Z,99137.09
2023-01-15T06:12:00.172Z,99134.31
2023-01-15T06:14:27.402Z,99121.59
2023-01-15T06:16:54.630Z,99139.84
2023-01-15T06:19:22.096Z,99138.94
2023-01-15T06:21:49.296Z,99130.47
2023-01-15T06:24:18.377Z,99134.44
2023-01-15T06:26:45.924Z,99135.97
2023-01-15T06:29:17.478Z,99144.88
2023-01-15T06:31:44.689Z,99131.03
2023-01-15T06:34:12.166Z,99129.53
2023-01-15T06:36:39.284Z,99132.47
2023-01-15T06:39:06.425Z,99137.38
2023-01-15T06:41:52.645Z,99141.72
2023-01-15T06:44:38.612Z,99136.34
2023-01-15T06:47:20.920Z,99132.44
2023-01-15T06:49:48.991Z,99126.03
2023-01-15T06:52:16.468Z,99133.19
2023-01-15T06:54:43.641Z,99118.09
2023-01-15T06:57:10.812Z,99121.22
2023-01-15T06:59:38.258Z,99111.25
2023-01-15T07:02:05.511Z,99117.97
2023-01-15T07:04:32.694Z,99118.50
2023-01-15T07:07:00.134Z,99115.03
2023-01-15T07:09:27.281Z,99114.44
2023-01-15T07:11:54.559Z,99119.75
2023-01-15T07:14:22.968Z,99114.41
2023-01-15T07:16:50.654Z,99115.47
2023-01-15T07:19:18.037Z,99109.41
2023-01-15T07:21:45.715Z,99114.91
2023-01-15T07:24:13.690Z,99112.25
2023-01-15T07:26:41.409Z,99106.06
2023-01-15T07:29:08.914Z,99103.06
2023-01-15T07:31:36.140Z,99107.84
2023-01-15T07:34:07.943Z,99117.34
2023-01-15T07:36:35.449Z,99109.75
2023-01-15T07:39:06.142Z,99115.72
2023-01-15T07:41:51.865Z,99089.56
2023-01-15T07:44:39.045Z,99099.72
2023-01-15T07:47:43.941Z,99108.59
2023-01-15T07:50:15.765Z,99098.41
2023-01-15T07:52:43.004Z,99105.34
2023-01-15T07:55:12.574Z,99098.06
2023-01-15T07:57:40.695Z,99103.19
2023-01-15T08:00:15.127Z,99103.00
2023-01-15T08:02:42.879Z,99103.47
2023-01-15T08:05:11.580Z,99096.63
2023-01-15T08:07:40.398Z,99083.56
2023-01-15T08:10:08.821Z,99086.13
2023-01-15T08:12:57.119Z,99092.19
2023-01-15T08:15:25.223Z,99092.34
2023-01-15T08:17:52.556Z,99091.72
2023-01-15T08:20:21.110Z,99097.47
2023-01-15T08:22:48.607Z,99093.16
2023-01-15T08:25:16.849Z,99100.84
2023-01-15T08:27:44.284Z,99103.00
2023-01-15T08:30:13.277Z,99085.69
2023-01-15T08:32:40.618Z,99084.63
2023-01-15T08:35:08.465Z,99098.44
2023-01-15T08:37:35.896Z,99097.69
2023-01-15T08:40:03.059Z,99104.28
2023-01-15T08:42:30.347Z,99097.75
2023-01-15T08:44:57.770Z,99102.22
2023-01-15T08:47:24.937Z,99090.53
2023-01-15T08:49:52.272Z,99091.38
2023-01-15T08:52:19.717Z,99091.50
2023-01-15T08:54:46.956Z,99090.16
2023-01-15T08:57:14.192Z,99088.97
2023-01-15T08:59:45.407Z,99087.37
2023-01-15T09:02:13.330Z,99085.38
2023-01-15T09:04:40.678Z,99079.94
2023-01-15T09:07:08.985Z,99086.09
2023-01-15T09:09:36.261Z,99067.78
2023-01-15T09:12:06.511Z,99057.50
2023-01-15T09:14:55.580Z,99051.38
2023-01-15T09:17:21.140Z,99050.19
2023-01-15T09:19:48.572Z,99052.91
2023-01-15T09:22:15.863Z,99043.38
2023-01-15T09:24:43.027Z,99051.84
2023-01-15T09:27:13.608Z,99039.31
2023-01-15T09:29:40.845Z,99038.03
2023-01-15T09:32:09.913Z,99032.31
2023-01-15T09:34:37.432Z,99036.50
2023-01-15T09:37:04.639Z,99019.28
2023-01-15T09:39:34.153Z,99020.63
2023-01-15T09:42:12.852Z,99008.47
2023-01-15T09:44:58.660Z,99007.19
2023-01-15T09:47:26.149Z,99000.81
2023-01-15T09:49:58.511Z,99016.53
2023-01-15T09:52:35.067Z,98992.69
2023-01-15T09:55:13.610Z,98998.66
2023-01-15T09:57:41.337Z,98998.16
2023-01-15T10:00:13.499Z,98986.06
2023-01-15T10:02:45.750Z,98973.31
2023-01-15T10:05:23.638Z,98964.06
2023-01-15T10:07:56.244Z,98968.91
2023-01-15T10:10:25.304Z,98955.78
2023-01-15T10:12:54.104Z,98956.37
2023-01-15T10:15:23.796Z,98948.19
2023-01-15T10:17:53.706Z,98944.94
2023-01-15T10:20:23.653Z,98923.16
2023-01-15T10:22:51.115Z,98927.56
2023-01-15T10:25:19.713Z,98936.19
2023-01-15T10:27:48.770Z,98922.34
2023-01-15T10:30:37.042Z,98924.16
2023-01-15T10:33:06.935Z,98926.28
2023-01-15T10:35:56.017Z,98914.50
2023-01-15T10:38:33.697Z,98904.88
2023-01-15T10:41:25.470Z,98887.34
2023-01-15T10:43:54.595Z,98900.75
2023-01-15T10:46:32.405Z,98882.56
2023-01-15T10:49:00.168Z,98878.94
2023-01-15T10:51:33.991Z,98868.28
2023-01-15T10:54:20.151Z,98873.06
2023-01-15T10:56:51.679Z,98869.28
2023-01-15T10:59:22.175Z,98861.72
2023-01-15T11:01:53.147Z,98857.47
2023-01-15T11:04:21.233Z,98846.44
2023-01-15T11:06:50.119Z,98839.03
2023-01-15T11:09:22.211Z,98829.50
2023-01-15T11:11:59.880Z,98828.66
2023-01-15T11:14:53.074Z,98834.34
2023-01-15T11:17:39.070Z,98833.88
2023-01-15T11:20:15.153Z,98820.31
2023-01-15T11:22:44.861Z,98806.84
2023-01-15T11:25:12.444Z,98805.13
2023-01-15T11:27:40.314Z,98816.47
2023-01-15T11:30:24.432Z,98807.78
2023-01-15T11:32:54.860Z,98803.28
2023-01-15T11:35:22.330Z,98794.91
2023-01-15T11:37:49.638Z,98790.28
2023-01-15T11:40:21.145Z,98790.50
2023-01-15T11:43:07.897Z,98781.34
2023-01-15T11:45:54.317Z,98766.37
2023-01-15T11:48:41.623Z,98750.44
2023-01-15T11:51:15.145Z,98748.16
2023-01-15T11:53:42.929Z,98746.38
2023-01-15T11:56:10.937Z,98726.91
2023-01-15T11:58:42.884Z,98714.88
2023-01-15T12:01:12.314Z,98716.81
2023-01-15T12:03:39.913Z,98713.84
2023-01-15T12:06:12.020Z,98709.75
2023-01-15T12:08:39.558Z,98709.38
2023-01-15T12:11:25.134Z,98698.34
2023-01-15T12:14:02.803Z,98693.56
2023-01-15T12:16:40.636Z,98707.19
2023-01-15T12:19:20.313Z,98701.91
2023-01-15T12:21:57.378Z,98703.06
2023-01-15T12:24:34.844Z,98698.66
2023-01-15T12:27:02.172Z,98699.28
2023-01-15T12:29:32.037Z,98697.81
2023-01-15T12:32:02.008Z,98702.50
2023-01-15T12:34:37.913Z,98700.91
2023-01-15T12:37:06.660Z,98698.34
2023-01-15T12:39:45.656Z,98693.22
2023-01-15T12:42:32.778Z,98691.00
2023-01-15T12:45:04.969Z,98689.19
2023-01-15T12:47:39.838Z,98691.84
2023-01-15T12:50:07.673Z,98685.97
2023-01-15T12:52:36.491Z,98681.59
2023-01-15T12:55:14.859Z,98683.19
2023-01-15T12:57:44.221Z,98684.91
2023-01-15T13:00:18.700Z,98681.19
2023-01-15T13:02:56.040Z,98682.09
2023-01-15T13:05:30.412Z,98684.56
2023-01-15T13:08:00.140Z,98681.09
2023-01-15T13:10:28.251Z,98676.03
2023-01-15T13:12:55.999Z,98689.72
2023-01-15T13:15:25.691Z,98691.22
2023-01-15T13:18:09.762Z,98670.28
2023-01-15T13:21:03.909Z,98673.88
2023-01-15T13:23:50.312Z,98668.56
2023-01-15T13:26:24.079Z,98664.12
2023-01-15T13:28:53.497Z,98659.00
2023-01-15T13:31:21.600Z,98655.44
2023-01-15T13:33:50.329Z,98649.97
2023-01-15T13:36:28.235Z,98643.44
2023-01-15T13:38:57.217Z,98641.44
2023-01-15T13:41:44.863Z,98638.91
2023-01-15T13:44:16.495Z,98638.28
2023-01-15T13:46:43.951Z,98638.38
2023-01-15T13:49:17.016Z,98635.88
2023-01-15T13:51:47.189Z,98637.53
2023-01-15T13:54:19.099Z,98633.31
2023-01-15T13:56:46.868Z,98618.50
2023-01-15T13:59:40.030Z,98619.44
2023-01-15T14:02:34.890Z,98618.56
2023-01-15T14:05:20.877Z,98633.97
2023-01-15T14:07:48.755Z,98619.44
2023-01-15T14:10:20.905Z,98626.38
2023-01-15T14:13:07.852Z,98622.91
2023-01-15T14:15:44.787Z,98618.31
2023-01-15T14:18:32.306Z,98616.81
2023-01-15T14:21:06.258Z,98619.22
2023-01-15T14:23:57.062Z,98621.16
2023-01-15T14:26:27.902Z,98617.62
2023-01-15T14:29:13.984Z,98619.19
2023-01-15T14:31:42.268Z,98620.94
2023-01-15T14:34:10.412Z,98616.84
2023-01-15T14:36:45.992Z,98609.06
2023-01-15T14:39:34.211Z,98602.09
2023-01-15T14:42:39.528Z,98602.97
2023-01-15T14:45:13.230Z,98596.03
2023-01-15T14:47:47.489Z,98604.66
2023-01-15T14:50:22.816Z,98604.63
2023-01-15T14:52:51.484Z,98604.63
2023-01-15T14:55:19.546Z,98601.28
2023-01-15T14:58:14.590Z,98598.69
2023-01-15T15:00:43.392Z,98610.75
2023-01-15T15:03:21.639Z,98600.41
2023-01-15T15:05:49.649Z,98602.12
2023-01-15T15:08:18.265Z,98600.44
2023-01-15T15:10:47.782Z,98603.84
2023-01-15T15:13:20.142Z,98589.19
2023-01-15T15:15:57.751Z,98593.47
2023-01-15T15:18:33.249Z,98578.78
2023-01-15T15:21:27.037Z,98579.62
2023-01-15T15:24:13.475Z,98577.91
2023-01-15T15:26:41.134Z,98571.88
2023-01-15T15:29:09.218Z,98569.22
2023-01-15T15:31:37.966Z,98565.81
2023-01-15T15:34:06.845Z,98556.28
2023-01-15T15:36:37.606Z,98564.06
2023-01-15T15:39:33.408Z,98560.53
2023-01-15T15:42:20.117Z,98564.06
2023-01-15T15:45:10.365Z,98560.63
2023-01-15T15:47:57.649Z,98568.37
2023-01-15T15:50:26.320Z,98559.59
2023-01-15T15:52:58.544Z,98551.03
2023-01-15T15:55:28.616Z,98555.28
2023-01-15T15:57:57.641Z,98554.44
2023-01-15T16:00:30.436Z,98567.56
2023-01-15T16:03:00.578Z,98563.13
2023-01-15T16:05:31.749Z,98563.16
2023-01-15T16:08:29.293Z,98560.59
2023-01-15T16:10:58.934Z,98571.00
2023-01-15T16:13:31.261Z,98550.97
2023-01-15T16:16:00.102Z,98553.59
2023-01-15T16:18:29.840Z,98548.88
2023-01-15T16:20:57.812Z,98552.28
2023-01-15T16:23:27.797Z,98550.72
2023-01-15T16:26:08.483Z,98556.53
2023-01-15T16:28:37.968Z,98546.94
2023-01-15T16:31:07.340Z,98551.25
2023-01-15T16:33:35.511Z,98551.47
2023-01-15T16:36:05.141Z,98564.09
2023-01-15T16:38:33.962Z,98564.88
2023-01-15T16:41:02.336Z,98557.75
2023-01-15T16:43:30.325Z,98553.94
2023-01-15T16:46:00.603Z,98552.00
2023-01-15T16:48:30.429Z,98551.38
2023-01-15T16:51:00.350Z,98545.81
2023-01-15T16:53:33.112Z,98548.19
2023-01-15T16:56:03.588Z,98546.53
2023-01-15T16:58:41.505Z,98555.41
2023-01-15T17:01:43.025Z,98541.47
2023-01-15T17:04:25.152Z,98546.47
2023-01-15T17:06:57.179Z,98563.22
2023-01-15T17:09:26.968Z,98557.12
2023-01-15T17:11:57.865Z,98554.56
2023-01-15T17:14:27.537Z,98547.63
2023-01-15T17:17:15.517Z,98542.47
2023-01-15T17:19:46.628Z,98545.03
2023-01-15T17:22:24.009Z,98532.78
2023-01-15T17:24:53.325Z,98528.47
2023-01-15T17:27:23.626Z,98539.69
2023-01-15T17:29:52.013Z,98528.38
2023-01-15T17:32:33.355Z,98532.03
2023-01-15T17:35:01.571Z,98532.84
2023-01-15T17:37:29.720Z,98531.09
2023-01-15T17:39:58.323Z,98524.81
2023-01-15T17:42:26.792Z,98543.31
2023-01-15T17:44:55.920Z,98530.28
2023-01-15T17:47:23.954Z,98529.03
2023-01-15T17:49:54.032Z,98537.78
2023-01-15T17:52:22.706Z,98524.47
2023-01-15T17:55:09.677Z,98531.72
2023-01-15T17:57:56.981Z,98532.75
2023-01-15T18:00:44.225Z,98530.66
2023-01-15T18:03:36.044Z,98523.50
2023-01-15T18:06:05.872Z,98522.31
2023-01-15T18:08:35.123Z,98529.13
2023-01-15T18:11:03.706Z,98523.16
2023-01-15T18:13:34.008Z,98527.66
2023-01-15T18:16:03.131Z,98521.28
2023-01-15T18:18:31.812Z,98518.53
2023-01-15T18:21:02.495Z,98524.19
2023-01-15T18:23:33.350Z,98521.63
2023-01-15T18:26:06.002Z,98526.94
2023-01-15T18:28:36.540Z,98529.22
2023-01-15T18:31:05.194Z,98541.12
2023-01-15T18:33:33.255Z,98531.00
2023-01-15T18:36:08.940Z,98540.84
2023-01-15T18:38:37.857Z,98531.03
2023-01-15T18:41:09.484Z,98540.44
2023-01-15T18:43:56.413Z,98537.37
2023-01-15T18:46:44.850Z,98533.47
2023-01-15T18:49:14.862Z,98531.09
2023-01-15T18:51:43.786Z,98533.47
2023-01-15T18:54:13.955Z,98542.28
2023-01-15T18:56:43.378Z,98538.53
2023-01-15T18:59:14.665Z,98542.69
2023-01-15T19:01:42.854Z,98531.13
2023-01-15T19:04:13.674Z,98535.25
2023-01-15T19:06:42.224Z,98541.91
2023-01-15T19:09:17.284Z,98546.00
2023-01-15T19:11:49.372Z,98543.72
2023-01-15T19:14:35.950Z,98542.44
2023-01-15T19:17:22.835Z,98548.19
2023-01-15T19:19:52.632Z,98553.06
2023-01-15T19:22:39.754Z,98542.41
2023-01-15T19:25:09.534Z,98538.59
2023-01-15T19:27:40.955Z,98553.22
2023-01-15T19:30:09.628Z,98553.28
2023-01-15T19:32:38.859Z,98553.13
2023-01-15T19:35:07.185Z,98546.56
2023-01-15T19:37:41.581Z,98537.44
2023-01-15T19:40:32.083Z,98543.16
2023-01-15T19:43:19.858Z,98544.03
2023-01-15T19:46:15.017Z,98532.28
2023-01-15T19:49:01.619Z,98532.03
2023-01-15T19:51:48.957Z,98526.62
2023-01-15T19:54:36.927Z,98526.84
2023-01-15T19:57:06.612Z,98532.88
2023-01-15T19:59:35.147Z,98536.00
2023-01-15T20:02:04.694Z,98535.63
2023-01-15T20:04:33.481Z,98538.34
2023-01-15T20:07:02.166Z,98534.78
2023-01-15T20:09:30.755Z,98530.91
2023-01-15T20:12:19.134Z,98540.56
2023-01-15T20:14:47.448Z,98534.72
2023-01-15T20:17:19.489Z,98535.44
2023-01-15T20:19:47.978Z,98526.44
2023-01-15T20:22:17.409Z,98528.78
2023-01-15T20:24:46.169Z,98525.13
2023-01-15T20:27:15.067Z,98525.31
2023-01-15T20:29:46.137Z,98532.59
2023-01-15T20:32:14.746Z,98540.78
2023-01-15T20:34:43.748Z,98538.53
2023-01-15T20:37:11.370Z,98543.03
2023-01-15T20:39:40.744Z,98534.25
2023-01-15T20:42:29.093Z,98533.31
2023-01-15T20:44:57.559Z,98535.38
2023-01-15T20:47:46.354Z,98534.31
2023-01-15T20:50:15.900Z,98533.69
2023-01-15T20:52:45.602Z,98536.38
2023-01-15T20:55:14.314Z,98542.75
2023-01-15T20:57:43.968Z,98542.84
2023-01-15T21:00:14.431Z,98537.66
2023-01-15T21:02:42.709Z,98543.66
2023-01-15T21:05:10.623Z,98542.47
2023-01-15T21:07:39.912Z,98534.03
2023-01-15T21:10:09.615Z,98535.38
2023-01-15T21:12:37.497Z,98535.31
2023-01-15T21:15:07.080Z,98524.06
2023-01-15T21:17:34.756Z,98524.09
2023-01-15T21:20:03.780Z,98517.09
2023-01-15T21:22:32.117Z,98511.09
2023-01-15T21:24:59.579Z,98525.69
2023-01-15T21:27:28.393Z,98521.28
2023-01-15T21:29:59.050Z,98530.50
2023-01-15T21:32:26.894Z,98528.69
2023-01-15T21:34:54.334Z,98524.59
2023-01-15T21:37:22.406Z,98528.47
2023-01-15T21:39:50.228Z,98522.56
2023-01-15T21:42:36.972Z,98513.75
2023-01-15T21:45:05.354Z,98512.63
2023-01-15T21:47:32.702Z,98497.25
2023-01-15T21:50:00.204Z,98495.88
2023-01-15T21:52:29.380Z,98491.97
2023-01-15T21:54:56.656Z,98492.16
2023-01-15T21:57:23.835Z,98497.09
2023-01-15T21:59:51.456Z,98509.88
2023-01-15T22:02:20.138Z,98504.78
2023-01-15T22:04:48.529Z,98509.91
2023-01-15T22:07:16.352Z,98504.84
2023-01-15T22:09:43.601Z,98504.78
2023-01-15T22:12:14.074Z,98495.12
2023-01-15T22:14:41.219Z,98492.41
2023-01-15T22:17:10.259Z,98487.34
2023-01-15T22:19:37.964Z,98482.00
2023-01-15T22:22:08.371Z,98490.66
2023-01-15T22:24:36.027Z,98486.00
2023-01-15T22:27:06.561Z,98491.91
2023-01-15T22:29:38.184Z,98497.56
2023-01-15T22:32:06.097Z,98505.28
2023-01-15T22:34:34.862Z,98498.16
2023-01-15T22:37:02.096Z,98502.16
2023-01-15T22:39:30.316Z,98503.09
2023-01-15T22:42:16.017Z,98504.53
2023-01-15T22:44:45.043Z,98494.00
2023-01-15T22:47:12.634Z,98501.59
2023-01-15T22:49:39.786Z,98512.34
2023-01-15T22:52:07.492Z,98509.81
2023-01-15T22:54:34.803Z,98516.88
2023-01-15T22:57:02.064Z,98517.50
2023-01-15T22:59:29.601Z,98533.41
2023-01-15T23:01:56.868Z,98518.38
2023-01-15T23:04:24.563Z,98523.44
2023-01-15T23:06:52.734Z,98509.72
2023-01-15T23:09:20.582Z,98506.81
2023-01-15T23:11:47.753Z,98500.09
2023-01-15T23:14:15.779Z,98506.78
2023-01-15T23:16:43.250Z,98499.00
2023-01-15T23:19:10.500Z,98488.56
2023-01-15T23:21:38.489Z,98478.94
2023-01-15T23:24:05.762Z,98468.31
2023-01-15T23:26:33.622Z,98448.03
2023-01-15T23:29:01.076Z,98448.84
2023-01-15T23:31:28.376Z,98469.53
2023-01-15T23:33:55.560Z,98490.97
2023-01-15T23:36:23.312Z,98495.22
2023-01-15T23:38:50.437Z,98484.56
2023-01-15T23:41:18.671Z,98480.66
2023-01-15T23:44:04.990Z,98479.53
2023-01-15T23:46:35.513Z,98481.81
2023-01-15T23:49:04.832Z,98469.59
2023-01-15T23:51:33.134Z,98475.00
2023-01-15T23:54:00.666Z,98472.94
2023-01-15T23:56:28.658Z,98462.50
2023-01-15T23:58:56.233Z,98464.19
